Time;durP1;ratioP1;P1;durP2;ratioP2;P2;SDS_P1;SDS_P2;PMS_P1;PMS_P2;Temp;Humidity;BMP_temperature;BMP_pressure;BME280_temperature;BME280_humidity;BME280_pressure;Samples;Min_cycle;Max_cycle;Signal;HPM_P1;HPM_P2
2022/01/23 00:02:44;;;;;;;7.50;4.72;;;6.50;92.00;;;;;;5047048;28;20056;-70
2022/01/23 00:05:10;;;;;;;7.10;4.90;;;6.60;92.00;;;;;;5054295;28;20049;-70
2022/01/23 00:07:37;;;;;;;9.80;4.88;;;6.60;92.00;;;;;;5047985;28;20047;-70
2022/01/23 00:10:04;;;;;;;5.55;4.50;;;6.60;92.00;;;;;;5047847;28;20138;-70
2022/01/23 00:12:35;;;;;;;11.82;4.85;;;6.60;92.00;;;;;;5049127;28;20045;-71
2022/01/23 00:17:45;;;;;;;9.85;5.28;;;6.60;91.90;;;;;;5046119;28;20067;-70
2022/01/23 00:20:12;;;;;;;6.93;5.30;;;6.50;91.90;;;;;;5047297;28;20481;-70
2022/01/23 00:22:43;;;;;;;12.68;5.22;;;6.60;91.90;;;;;;5030422;28;20045;-70
2022/01/23 00:30:41;;;;;;;12.38;4.95;;;6.60;91.90;;;;;;5047192;28;20494;-70
2022/01/23 00:33:08;;;;;;;9.20;5.93;;;6.60;91.90;;;;;;5047559;28;20550;-70
2022/01/23 00:35:36;;;;;;;8.20;5.22;;;6.60;91.90;;;;;;5046883;28;20047;-70
2022/01/23 00:38:04;;;;;;;10.93;5.40;;;6.60;91.80;;;;;;5047530;28;20044;-70
2022/01/23 00:40:31;;;;;;;7.53;5.47;;;6.60;91.80;;;;;;5030032;28;20088;-70
2022/01/23 00:42:58;;;;;;;7.82;5.47;;;6.60;91.80;;;;;;5064797;28;20135;-70
2022/01/23 00:47:59;;;;;;;9.45;5.38;;;6.60;91.80;;;;;;5048803;28;20825;-70
2022/01/23 00:50:26;;;;;;;7.80;4.95;;;6.60;91.90;;;;;;5048592;28;20135;-70
2022/01/23 00:52:52;;;;;;;8.02;5.10;;;6.70;91.90;;;;;;5044132;28;20478;-70
2022/01/23 00:55:18;;;;;;;10.00;5.07;;;6.70;91.80;;;;;;5045717;28;20063;-70
2022/01/23 00:57:43;;;;;;;8.15;5.40;;;6.70;91.80;;;;;;5051514;28;20044;-70
2022/01/23 01:00:09;;;;;;;8.88;5.22;;;6.70;91.70;;;;;;5047342;28;20136;-70
2022/01/23 01:02:35;;;;;;;7.22;4.38;;;6.70;91.80;;;;;;5047794;28;20040;-70
2022/01/23 01:05:02;;;;;;;6.82;4.50;;;6.60;91.70;;;;;;5029317;28;20102;-71
2022/01/23 01:07:27;;;;;;;7.90;4.35;;;6.70;91.70;;;;;;5046928;28;20446;-70
2022/01/23 01:09:58;;;;;;;8.15;5.18;;;6.60;91.70;;;;;;5046662;28;20134;-70
2022/01/23 01:12:29;;;;;;;10.88;5.18;;;6.60;91.70;;;;;;5052212;28;20493;-70
2022/01/23 01:15:25;;;;;;;11.18;5.43;;;6.60;91.70;;;;;;5047167;28;20142;-70
2022/01/23 01:31:29;;;;;;;7.10;5.65;;;6.50;91.70;;;;;;5049827;28;20053;-71
2022/01/23 01:34:02;;;;;;;11.05;5.38;;;6.50;91.80;;;;;;5051766;28;20052;-71
2022/01/23 01:36:52;;;;;;;11.93;5.78;;;6.40;91.80;;;;;;5051515;28;20620;-70
2022/01/23 01:39:24;;;;;;;9.73;6.07;;;6.40;91.80;;;;;;5050544;28;20770;-71
2022/01/23 01:41:51;;;;;;;11.68;5.78;;;6.50;91.90;;;;;;5040014;28;20049;-70
2022/01/23 01:44:17;;;;;;;7.03;5.32;;;6.50;91.90;;;;;;5051245;28;20037;-71
2022/01/23 01:46:44;;;;;;;12.63;5.57;;;6.40;91.90;;;;;;5049996;28;20049;-71
2022/01/23 01:49:10;;;;;;;8.63;5.25;;;6.40;92.10;;;;;;5039071;28;20045;-70
2022/01/23 01:51:37;;;;;;;8.93;5.07;;;6.40;92.00;;;;;;5017485;28;20048;-71
2022/01/23 01:54:17;;;;;;;10.32;5.00;;;6.40;91.90;;;;;;5049946;28;20045;-70
2022/01/23 01:57:05;;;;;;;6.65;4.10;;;6.40;91.90;;;;;;5054921;28;20555;-71
2022/01/23 02:10:06;;;;;;;6.65;3.72;;;6.30;91.90;;;;;;5070166;28;20044;-71
2022/01/23 02:15:43;;;;;;;5.47;4.00;;;6.30;91.70;;;;;;5067773;28;20163;-70
2022/01/23 02:18:27;;;;;;;6.65;3.50;;;6.30;91.80;;;;;;5050342;28;20079;-71
2022/01/23 02:51:15;;;;;;;6.70;3.47;;;6.30;91.60;;;;;;5049526;28;20088;-71
2022/01/23 02:54:18;;;;;;;6.10;2.80;;;6.30;91.60;;;;;;5049979;28;20084;-71
2022/01/23 02:56:44;;;;;;;4.60;3.10;;;6.30;91.60;;;;;;5056557;28;20173;-71
2022/01/23 02:59:25;;;;;;;5.00;3.00;;;6.30;91.60;;;;;;5050312;28;20044;-71
2022/01/23 03:02:10;;;;;;;4.40;3.20;;;6.30;91.50;;;;;;5048569;28;20056;-71
2022/01/23 03:04:39;;;;;;;7.50;3.20;;;6.30;91.60;;;;;;5050023;28;20053;-71
2022/01/23 03:13:23;;;;;;;4.63;3.10;;;6.30;91.50;;;;;;5054287;28;20056;-71
2022/01/23 03:15:00;;;;;;;3.85;2.90;;;6.30;91.50;;;;;;5048153;28;20045;-71
2022/01/23 03:26:53;;;;;;;4.28;2.90;;;6.30;91.50;;;;;;5050114;28;20451;-71
2022/01/23 03:28:39;;;;;;;4.72;3.78;;;6.20;91.60;;;;;;5064421;28;20099;-71
2022/01/23 03:31:21;;;;;;;6.28;3.60;;;6.20;91.60;;;;;;5060750;28;20053;-71
2022/01/23 03:33:46;;;;;;;5.82;3.20;;;6.30;91.60;;;;;;5046742;28;20067;-71
2022/01/23 03:36:12;;;;;;;8.02;4.32;;;6.30;91.60;;;;;;5049235;28;20045;-71
2022/01/23 03:38:38;;;;;;;5.22;3.67;;;6.30;91.60;;;;;;5048600;28;20049;-71
2022/01/23 03:41:04;;;;;;;7.97;4.30;;;6.30;91.60;;;;;;5050403;28;20064;-71
2022/01/23 03:43:32;;;;;;;4.85;3.20;;;6.30;91.60;;;;;;5047438;28;20059;-71
2022/01/23 03:46:21;;;;;;;8.57;3.63;;;6.30;91.60;;;;;;5048885;28;20037;-71
2022/01/23 03:51:12;;;;;;;3.20;2.90;;;6.40;91.60;;;;;;5048934;28;20053;-71
2022/01/23 03:53:38;;;;;;;4.28;3.00;;;6.40;91.50;;;;;;5049719;28;20095;-71
2022/01/23 03:56:05;;;;;;;5.97;3.40;;;6.50;91.60;;;;;;5053700;28;20029;-71
2022/01/23 03:58:31;;;;;;;7.47;3.50;;;6.40;91.60;;;;;;5059387;28;20099;-71
2022/01/23 04:00:57;;;;;;;3.00;2.67;;;6.50;91.50;;;;;;5046801;28;20061;-71
2022/01/23 04:03:23;;;;;;;6.65;3.25;;;6.50;91.50;;;;;;5047670;28;20120;-71
2022/01/23 04:05:50;;;;;;;5.18;3.60;;;6.50;91.50;;;;;;5047593;28;20393;-71
2022/01/23 04:08:17;;;;;;;4.03;3.17;;;6.60;91.50;;;;;;5048969;28;20118;-68
2022/01/23 04:10:43;;;;;;;3.25;2.65;;;6.60;91.50;;;;;;5034882;28;20052;-71
2022/01/23 04:15:51;;;;;;;3.28;2.78;;;6.60;91.40;;;;;;5048781;28;20049;-71
2022/01/23 04:31:40;;;;;;;3.63;2.80;;;6.70;91.40;;;;;;5048365;28;20060;-71
2022/01/23 04:46:21;;;;;;;5.30;2.53;;;6.60;90.90;;;;;;5046942;28;20472;-71
2022/01/23 05:05:08;;;;;;;4.25;2.45;;;6.50;90.40;;;;;;5050424;28;20088;-71
2022/01/23 05:07:34;;;;;;;3.85;2.20;;;6.50;90.30;;;;;;5050775;28;20072;-71
2022/01/23 05:10:00;;;;;;;6.10;2.38;;;6.50;90.20;;;;;;5050921;28;20641;-71
2022/01/23 05:12:30;;;;;;;3.40;2.85;;;6.50;90.20;;;;;;5059165;28;20045;-71
2022/01/23 05:14:57;;;;;;;11.32;2.92;;;6.50;90.10;;;;;;5051856;28;20044;-71
2022/01/23 05:17:22;;;;;;;3.60;2.50;;;6.50;90.10;;;;;;5062134;28;20102;-71
2022/01/23 05:19:48;;;;;;;7.35;2.80;;;6.40;90.00;;;;;;5070560;28;20041;-71
2022/01/23 05:24:52;;;;;;;17.88;2.60;;;6.40;89.90;;;;;;5052030;28;20052;-71
2022/01/23 05:27:21;;;;;;;3.45;2.50;;;6.30;89.90;;;;;;5035146;28;20049;-71
2022/01/23 05:29:47;;;;;;;20.50;2.75;;;6.40;89.90;;;;;;5051682;28;20127;-71
2022/01/23 05:32:13;;;;;;;3.67;2.50;;;6.30;89.80;;;;;;5038103;28;20069;-71
2022/01/23 05:34:39;;;;;;;2.60;2.35;;;6.30;89.80;;;;;;5051354;28;20049;-71
2022/01/23 05:37:05;;;;;;;3.53;2.90;;;6.30;89.90;;;;;;5051198;28;20102;-71
2022/01/23 05:39:33;;;;;;;3.55;2.83;;;6.30;89.90;;;;;;5051711;28;20418;-71
2022/01/23 05:42:06;;;;;;;3.10;2.80;;;6.40;89.90;;;;;;5051083;28;20041;-71
2022/01/23 05:44:31;;;;;;;3.90;2.80;;;6.40;89.90;;;;;;5052311;28;20106;-70
2022/01/23 05:46:57;;;;;;;3.72;2.95;;;6.40;89.90;;;;;;5049315;28;20066;-70
2022/01/23 05:49:23;;;;;;;3.97;2.97;;;6.40;89.90;;;;;;5049516;28;20128;-70
2022/01/23 05:51:48;;;;;;;2.95;2.65;;;6.40;89.90;;;;;;5050649;28;20041;-70
2022/01/23 05:54:14;;;;;;;3.15;2.85;;;6.40;89.90;;;;;;5051567;28;20041;-70
2022/01/23 05:56:41;;;;;;;4.65;3.00;;;6.40;90.00;;;;;;5051884;28;20558;-70
2022/01/23 05:59:06;;;;;;;3.20;2.90;;;6.40;90.00;;;;;;5050667;28;20056;-70
2022/01/23 06:01:32;;;;;;;4.95;2.78;;;6.40;90.00;;;;;;5050561;28;20053;-70
2022/01/23 06:03:58;;;;;;;2.60;2.40;;;6.50;90.10;;;;;;5051031;28;20049;-70
2022/01/23 06:06:23;;;;;;;2.88;2.40;;;6.50;90.10;;;;;;5048198;28;20033;-70
2022/01/23 06:08:49;;;;;;;2.70;2.50;;;6.50;90.10;;;;;;5050928;28;20095;-70
2022/01/23 06:11:15;;;;;;;3.30;2.58;;;6.50;90.20;;;;;;5050341;28;20402;-70
2022/01/23 06:13:41;;;;;;;3.05;2.38;;;6.40;90.20;;;;;;5050870;28;20041;-70
2022/01/23 06:16:07;;;;;;;4.40;2.92;;;6.50;90.20;;;;;;5050534;28;20049;-70
2022/01/23 06:18:35;;;;;;;3.25;2.75;;;6.50;90.20;;;;;;5050665;28;20051;-70
2022/01/23 06:21:01;;;;;;;4.13;2.70;;;6.50;90.30;;;;;;5048743;28;20529;-70
2022/01/23 06:23:30;;;;;;;5.85;2.83;;;6.50;90.30;;;;;;5050067;28;20119;-70
2022/01/23 06:25:56;;;;;;;3.03;2.72;;;6.50;90.40;;;;;;5053815;28;20052;-70
2022/01/23 06:28:33;;;;;;;3.63;3.33;;;6.60;90.50;;;;;;5048739;28;20111;-71
2022/01/23 06:30:58;;;;;;;3.35;2.38;;;6.60;90.50;;;;;;5049226;28;20040;-70
2022/01/23 06:33:24;;;;;;;3.08;2.78;;;6.60;90.50;;;;;;5048901;28;20599;-70
2022/01/23 06:35:50;;;;;;;3.40;2.80;;;6.60;90.40;;;;;;5049633;28;20513;-71
2022/01/23 06:38:15;;;;;;;2.90;2.45;;;6.60;90.40;;;;;;5050800;28;20052;-70
2022/01/23 06:40:41;;;;;;;3.28;2.22;;;6.60;90.40;;;;;;5057924;28;20083;-70
2022/01/23 06:43:07;;;;;;;3.53;2.35;;;6.60;90.40;;;;;;5054269;28;20041;-71
2022/01/23 06:45:32;;;;;;;2.80;2.42;;;6.60;90.40;;;;;;5053457;28;20070;-70
2022/01/23 06:47:58;;;;;;;3.78;2.30;;;6.60;90.50;;;;;;5069672;28;20045;-70
2022/01/23 06:50:24;;;;;;;2.70;2.13;;;6.60;90.50;;;;;;5066106;28;20044;-70
2022/01/23 06:52:50;;;;;;;3.15;2.45;;;6.60;90.50;;;;;;5049836;28;20191;-70
2022/01/23 06:55:17;;;;;;;2.67;2.20;;;6.70;90.60;;;;;;5060109;28;20541;-70
2022/01/23 06:57:43;;;;;;;2.85;2.55;;;6.60;90.50;;;;;;5049404;28;20076;-70
2022/01/23 07:00:09;;;;;;;3.70;2.75;;;6.70;90.50;;;;;;5054398;28;20056;-70
2022/01/23 07:02:35;;;;;;;3.20;2.53;;;6.80;90.50;;;;;;5052975;28;20764;-70
2022/01/23 07:05:01;;;;;;;3.55;2.42;;;6.70;90.40;;;;;;5050415;28;20135;-70
2022/01/23 07:07:26;;;;;;;2.92;2.30;;;6.80;90.40;;;;;;5048778;28;20501;-70
2022/01/23 07:09:52;;;;;;;3.67;2.35;;;6.70;90.30;;;;;;5050993;28;20132;-70
2022/01/23 07:12:18;;;;;;;2.83;2.25;;;6.80;90.30;;;;;;5050466;28;20511;-70
2022/01/23 07:14:43;;;;;;;2.45;2.20;;;6.80;90.20;;;;;;5050987;28;20036;-71
2022/01/23 07:17:09;;;;;;;2.70;2.25;;;6.80;90.10;;;;;;5062851;28;20679;-71
2022/01/23 07:19:34;;;;;;;4.78;2.45;;;6.70;90.20;;;;;;5056150;28;20122;-70
2022/01/23 07:22:00;;;;;;;2.90;2.65;;;6.80;90.20;;;;;;5047690;28;20406;-70
2022/01/23 07:24:26;;;;;;;3.15;2.53;;;6.80;90.20;;;;;;5053110;28;20041;-71
2022/01/23 07:26:51;;;;;;;5.65;2.55;;;6.80;90.20;;;;;;5051841;28;20040;-70
2022/01/23 07:29:18;;;;;;;5.68;2.83;;;6.80;90.20;;;;;;5048532;28;20138;-70
2022/01/23 07:31:56;;;;;;;3.45;2.80;;;6.80;90.10;;;;;;5047132;28;20041;-70
2022/01/23 07:34:22;;;;;;;4.00;2.65;;;6.80;90.10;;;;;;5053217;28;20149;-70
2022/01/23 07:36:47;;;;;;;4.57;2.85;;;6.70;90.20;;;;;;5048306;28;20116;-71
2022/01/23 07:39:13;;;;;;;2.97;2.67;;;6.70;90.20;;;;;;5049901;28;20548;-70
2022/01/23 07:41:39;;;;;;;4.00;3.15;;;6.70;90.20;;;;;;5066490;28;20036;-70
2022/01/23 07:44:05;;;;;;;5.43;2.85;;;6.70;90.20;;;;;;5049054;28;20052;-71
2022/01/23 07:46:31;;;;;;;4.13;2.60;;;6.70;90.30;;;;;;5050659;28;20421;-71
2022/01/23 07:48:56;;;;;;;4.55;3.03;;;6.70;90.30;;;;;;5050763;28;20047;-71
2022/01/23 07:51:23;;;;;;;4.22;3.00;;;6.70;90.30;;;;;;5051695;28;20102;-71
2022/01/23 07:53:48;;;;;;;5.38;2.97;;;6.80;90.30;;;;;;5054522;28;20041;-70
2022/01/23 07:56:14;;;;;;;5.95;4.18;;;6.80;90.20;;;;;;5048115;28;20132;-71
2022/01/23 07:58:40;;;;;;;5.35;3.30;;;6.80;90.30;;;;;;5031457;28;20123;-71
2022/01/23 08:01:06;;;;;;;4.45;3.30;;;6.80;90.30;;;;;;5047531;28;20045;-71
2022/01/23 08:03:31;;;;;;;5.65;3.22;;;6.70;90.30;;;;;;5059164;28;20102;-71
2022/01/23 08:05:57;;;;;;;4.22;3.63;;;6.90;90.30;;;;;;5052783;28;20055;-70
2022/01/23 08:08:23;;;;;;;5.85;3.50;;;6.90;90.30;;;;;;5048346;28;20508;-70
2022/01/23 08:10:48;;;;;;;4.18;2.90;;;6.90;90.30;;;;;;5060350;28;20564;-70
2022/01/23 08:13:14;;;;;;;6.32;3.15;;;6.80;90.30;;;;;;5051172;28;20045;-67
2022/01/23 08:15:39;;;;;;;5.30;3.38;;;6.90;90.30;;;;;;5047324;28;20051;-67
2022/01/23 08:18:07;;;;;;;4.35;3.10;;;6.90;90.30;;;;;;5055508;28;20397;-67
2022/01/23 08:20:33;;;;;;;4.65;3.42;;;6.90;90.30;;;;;;5052399;28;20511;-71
2022/01/23 08:23:03;;;;;;;5.78;3.17;;;7.00;90.60;;;;;;5047417;28;20524;-70
2022/01/23 08:25:31;;;;;;;7.53;3.90;;;7.10;90.40;;;;;;5045502;28;20489;-70
2022/01/23 08:27:57;;;;;;;4.78;3.42;;;7.10;90.20;;;;;;5048033;28;20037;-70
2022/01/23 08:30:24;;;;;;;5.63;3.90;;;7.10;90.20;;;;;;5047421;28;20037;-70
2022/01/23 08:32:50;;;;;;;7.68;3.60;;;7.10;90.20;;;;;;5048427;28;20070;-70
2022/01/23 08:35:16;;;;;;;5.22;3.47;;;7.10;90.10;;;;;;5049533;28;20041;-68
2022/01/23 08:37:42;;;;;;;6.15;4.20;;;7.10;90.10;;;;;;5061545;28;20076;-68
2022/01/23 08:40:19;;;;;;;5.60;4.07;;;7.00;90.10;;;;;;5036449;28;20044;-68
2022/01/23 08:42:45;;;;;;;5.32;4.25;;;7.00;90.10;;;;;;5054870;28;20924;-68
2022/01/23 08:45:11;;;;;;;9.63;4.70;;;7.00;90.20;;;;;;5051557;28;20524;-68
2022/01/23 08:47:37;;;;;;;10.45;4.50;;;6.90;90.20;;;;;;5052220;28;20124;-67
2022/01/23 08:50:03;;;;;;;7.03;4.72;;;6.90;90.20;;;;;;5051019;28;20123;-67
2022/01/23 08:52:29;;;;;;;10.50;4.82;;;6.90;90.30;;;;;;5051846;28;20159;-68
2022/01/23 08:54:57;;;;;;;11.02;4.50;;;6.90;90.40;;;;;;5054958;28;20817;-68
2022/01/23 08:57:24;;;;;;;9.38;5.00;;;7.10;90.80;;;;;;5072189;28;20083;-68
2022/01/23 08:59:50;;;;;;;8.45;4.82;;;7.10;90.60;;;;;;5057638;28;20053;-68
2022/01/23 09:02:17;;;;;;;10.07;4.97;;;7.10;90.40;;;;;;5051196;28;20413;-68
2022/01/23 09:04:46;;;;;;;9.10;4.93;;;7.10;90.20;;;;;;5051458;28;20044;-68
2022/01/23 09:07:13;;;;;;;8.48;5.50;;;7.10;90.20;;;;;;5049786;28;20584;-68
2022/01/23 09:09:40;;;;;;;9.95;5.55;;;7.10;90.10;;;;;;5051787;28;20149;-68
2022/01/23 09:13:04;;;;;;;10.55;5.30;;;7.10;90.10;;;;;;5071743;28;20059;-68
2022/01/23 09:14:56;;;;;;;6.93;4.82;;;7.10;90.20;;;;;;5045412;28;20037;-68
2022/01/23 09:17:22;;;;;;;10.63;4.50;;;7.00;90.20;;;;;;5049111;28;20052;-68
2022/01/23 09:19:48;;;;;;;9.48;4.85;;;7.10;90.20;;;;;;5050660;28;21027;-68
2022/01/23 09:22:14;;;;;;;11.13;5.43;;;7.10;90.20;;;;;;5050867;28;20049;-68
2022/01/23 09:24:40;;;;;;;7.28;4.85;;;7.10;90.30;;;;;;5051543;28;20086;-69
2022/01/23 09:27:08;;;;;;;11.88;6.63;;;7.20;90.30;;;;;;5050826;28;20450;-68
2022/01/23 09:29:37;;;;;;;8.73;5.10;;;7.20;90.30;;;;;;5049804;28;20523;-67
2022/01/23 09:32:14;;;;;;;8.75;4.50;;;7.30;90.30;;;;;;5032097;28;20072;-72
2022/01/23 09:34:42;;;;;;;9.35;4.72;;;7.30;90.20;;;;;;5050853;28;20068;-70
2022/01/23 09:37:13;;;;;;;11.15;5.20;;;7.30;90.30;;;;;;5047155;28;20052;-69
2022/01/23 09:39:41;;;;;;;7.22;4.90;;;7.40;90.20;;;;;;5051068;28;20131;-69
2022/01/23 09:42:13;;;;;;;10.38;7.03;;;7.40;90.10;;;;;;5050686;28;20115;-69
2022/01/23 09:44:46;;;;;;;9.18;5.90;;;7.50;90.20;;;;;;5045798;28;20071;-69
2022/01/23 09:47:14;;;;;;;8.85;5.38;;;7.40;90.10;;;;;;5046463;28;20418;-68
2022/01/23 09:49:42;;;;;;;8.95;5.93;;;7.40;90.00;;;;;;5045588;28;20494;-69
2022/01/23 09:52:09;;;;;;;10.25;5.80;;;7.40;89.90;;;;;;5036682;28;20077;-69
2022/01/23 09:54:37;;;;;;;15.85;6.00;;;7.30;89.90;;;;;;5043594;28;20044;-68
2022/01/23 09:57:06;;;;;;;10.15;5.65;;;7.40;89.90;;;;;;5049473;28;20051;-69
2022/01/23 09:59:32;;;;;;;10.68;5.38;;;7.30;89.90;;;;;;5049114;28;20486;-69
2022/01/23 10:01:58;;;;;;;11.18;6.22;;;7.30;90.00;;;;;;5050494;28;20045;-69
2022/01/23 10:04:25;;;;;;;10.68;5.30;;;7.40;90.00;;;;;;5050225;28;20070;-69
2022/01/23 10:06:52;;;;;;;9.82;5.13;;;7.40;90.00;;;;;;5049750;28;20098;-69
2022/01/23 10:09:20;;;;;;;8.95;4.93;;;7.40;90.00;;;;;;5050268;28;20049;-69
2022/01/23 10:11:48;;;;;;;9.85;5.70;;;7.30;89.90;;;;;;5049144;28;20159;-69
2022/01/23 10:14:17;;;;;;;9.98;5.75;;;7.30;89.90;;;;;;5042073;28;20343;-69
2022/01/23 10:16:44;;;;;;;9.32;6.57;;;7.30;90.00;;;;;;5048257;28;20044;-69
2022/01/23 10:19:10;;;;;;;6.95;4.22;;;7.30;90.00;;;;;;5049515;28;20138;-65
2022/01/23 10:21:40;;;;;;;9.82;5.25;;;8.70;94.90;;;;;;5048445;28;20135;-69
2022/01/23 10:24:07;;;;;;;7.88;4.82;;;8.80;91.20;;;;;;5044472;28;20045;-69
2022/01/23 10:26:49;;;;;;;6.63;4.63;;;8.70;90.50;;;;;;5049745;28;20037;-69
2022/01/23 10:29:26;;;;;;;6.68;4.47;;;8.60;89.60;;;;;;5046240;28;20072;-69
2022/01/23 10:32:21;;;;;;;7.45;4.70;;;8.70;89.80;;;;;;5051352;28;20045;-69
2022/01/23 10:34:46;;;;;;;6.55;4.65;;;8.60;88.90;;;;;;5048602;28;20098;-69
2022/01/23 10:37:34;;;;;;;8.30;4.90;;;8.40;88.50;;;;;;5049504;28;20041;-69
2022/01/23 10:40:23;;;;;;;5.78;4.38;;;8.40;88.50;;;;;;5048913;28;20044;-69
2022/01/23 10:43:07;;;;;;;9.32;4.75;;;8.20;88.40;;;;;;5046515;28;20124;-69
2022/01/23 10:48:37;;;;;;;6.82;4.72;;;7.90;88.60;;;;;;5048273;28;20445;-69
2022/01/23 10:51:14;;;;;;;8.65;4.80;;;7.80;88.70;;;;;;5046889;28;20049;-69
2022/01/23 10:54:02;;;;;;;7.63;4.47;;;7.80;88.90;;;;;;5048047;28;20048;-69
2022/01/23 10:56:31;;;;;;;6.78;4.45;;;7.80;88.80;;;;;;5048053;28;20041;-69
2022/01/23 10:59:00;;;;;;;6.47;4.18;;;7.70;89.00;;;;;;5048806;28;20063;-69
2022/01/23 11:01:27;;;;;;;6.53;4.72;;;7.70;89.00;;;;;;5048449;28;20080;-69
2022/01/23 11:04:11;;;;;;;7.47;4.78;;;7.70;89.10;;;;;;5048710;28;20037;-69
2022/01/23 11:06:57;;;;;;;7.38;4.25;;;7.70;89.10;;;;;;5048067;28;20493;-69
2022/01/23 11:09:32;;;;;;;5.88;4.13;;;7.70;89.20;;;;;;5031878;28;20054;-69
2022/01/23 11:12:29;;;;;;;5.53;3.78;;;7.70;89.40;;;;;;5048996;28;20569;-67
2022/01/23 11:17:51;;;;;;;9.45;3.53;;;7.60;89.50;;;;;;5048234;28;20080;-68
2022/01/23 11:20:37;;;;;;;8.95;3.97;;;7.60;89.50;;;;;;5048474;28;20049;-69
2022/01/23 11:23:19;;;;;;;7.50;3.30;;;7.60;89.30;;;;;;5043642;28;20051;-69
2022/01/23 11:25:56;;;;;;;8.20;3.67;;;7.60;89.40;;;;;;5047047;28;20033;-69
2022/01/23 11:28:37;;;;;;;6.97;3.33;;;7.50;89.40;;;;;;5048482;28;20669;-69
2022/01/23 11:31:10;;;;;;;6.75;3.80;;;7.50;89.50;;;;;;5047841;28;20123;-69
2022/01/23 11:33:35;;;;;;;5.90;3.85;;;7.50;89.50;;;;;;5049323;28;20124;-69
2022/01/23 11:36:02;;;;;;;5.85;3.80;;;7.50;89.60;;;;;;5048999;28;20170;-69
2022/01/23 11:38:28;;;;;;;10.07;3.47;;;7.50;89.50;;;;;;5047580;28;20044;-68
2022/01/23 11:55:30;;;;;;;6.75;3.70;;;7.40;89.60;;;;;;5046002;28;20052;-68
2022/01/23 11:57:56;;;;;;;7.15;4.18;;;7.50;89.60;;;;;;5044350;28;20155;-69
2022/01/23 12:00:36;;;;;;;6.70;3.97;;;7.40;89.70;;;;;;5028866;28;20132;-68
2022/01/23 12:03:07;;;;;;;;;;;7.50;89.70;;;;;;5048540;28;20044;-68
2022/01/23 12:05:34;;;;;;;6.50;3.95;;;7.50;89.50;;;;;;5045655;28;19921;-68
2022/01/23 12:08:36;;;;;;;7.43;4.78;;;7.40;89.80;;;;;;5046519;28;20144;-69
2022/01/23 12:17:01;;;;;;;7.97;4.65;;;7.70;89.60;;;;;;5052355;28;20049;-68
2022/01/23 12:19:29;;;;;;;14.55;4.57;;;7.60;89.70;;;;;;5041784;28;20037;-69
2022/01/23 12:21:59;;;;;;;5.68;4.03;;;7.60;89.60;;;;;;5047718;28;20090;-68
2022/01/23 12:24:25;;;;;;;8.63;4.45;;;7.70;89.60;;;;;;5051956;28;20041;-69
2022/01/23 12:27:12;;;;;;;11.27;6.70;;;7.60;89.50;;;;;;5047140;28;20071;-68
2022/01/23 12:29:39;;;;;;;10.43;4.30;;;7.60;89.50;;;;;;5062091;28;20448;-69
2022/01/23 12:32:26;;;;;;;14.68;9.60;;;7.60;89.40;;;;;;5036934;28;20051;-66
2022/01/23 12:34:56;;;;;;;24.13;12.27;;;7.70;89.70;;;;;;5056162;28;20048;-66
2022/01/23 12:37:22;;;;;;;15.95;8.52;;;9.10;93.70;;;;;;5047086;28;20053;-65
2022/01/23 12:40:27;;;;;;;11.02;5.22;;;9.90;93.40;;;;;;5048434;28;20131;-65
2022/01/23 12:43:06;;;;;;;8.13;3.40;;;10.60;90.90;;;;;;5061594;28;20135;-68
2022/01/23 12:45:47;;;;;;;4.95;2.92;;;10.70;88.30;;;;;;5040214;28;20098;-68
2022/01/23 12:48:24;;;;;;;3.65;2.40;;;10.30;86.90;;;;;;5047876;28;20091;-68
2022/01/23 12:51:11;;;;;;;4.63;2.83;;;9.60;84.70;;;;;;5044334;28;20085;-67
2022/01/23 12:53:43;;;;;;;6.07;2.58;;;9.20;85.30;;;;;;5035894;28;20056;-68
2022/01/23 12:56:12;;;;;;;7.10;4.38;;;8.90;85.80;;;;;;5060349;28;20558;-67
2022/01/23 12:58:38;;;;;;;6.38;3.55;;;8.90;87.70;;;;;;5045437;28;20485;-69
2022/01/23 13:01:14;;;;;;;9.70;3.10;;;8.90;86.50;;;;;;5053588;28;20083;-69
2022/01/23 13:03:43;;;;;;;5.63;3.22;;;8.70;85.90;;;;;;5048894;28;20051;-68
2022/01/23 13:06:11;;;;;;;4.40;2.83;;;8.50;86.50;;;;;;5051705;28;20489;-69
2022/01/23 13:08:46;;;;;;;6.18;3.25;;;8.40;86.70;;;;;;5066645;28;20109;-69
2022/01/23 13:11:50;;;;;;;3.42;2.80;;;8.30;87.00;;;;;;5045346;28;20084;-68
2022/01/23 13:14:08;;;;;;;6.00;3.03;;;8.20;87.10;;;;;;5047122;28;20583;-68
2022/01/23 13:16:59;;;;;;;4.53;2.22;;;8.10;87.10;;;;;;5047610;28;20048;-68
2022/01/23 13:29:27;;;;;;;;;;;8.00;87.00;;;;;;5052785;28;20049;-67
2022/01/23 13:31:06;;;;;;;6.55;2.83;;;7.90;86.70;;;;;;5060863;28;19982;-68
2022/01/23 13:33:31;;;;;;;6.68;3.25;;;7.90;87.20;;;;;;5050732;28;20308;-68
2022/01/23 13:36:00;;;;;;;6.40;3.00;;;7.90;87.20;;;;;;5032920;28;20072;-68
2022/01/23 13:38:26;;;;;;;5.00;3.38;;;7.90;87.20;;;;;;5030220;28;20405;-69
2022/01/23 13:41:00;;;;;;;7.18;3.70;;;7.90;87.00;;;;;;5051311;28;20047;-69
2022/01/23 13:52:00;;;;;;;5.78;3.70;;;7.90;87.20;;;;;;5070786;28;20044;-68
2022/01/23 14:00:04;;;;;;;4.90;3.42;;;7.90;87.30;;;;;;5060985;28;20118;-69
2022/01/23 14:02:36;;;;;;;6.13;3.70;;;7.80;87.30;;;;;;5054350;28;20512;-69
2022/01/23 14:05:04;;;;;;;6.00;3.92;;;7.80;87.20;;;;;;5062033;28;20041;-69
2022/01/23 14:07:31;;;;;;;5.95;3.83;;;7.80;87.30;;;;;;5055667;28;20043;-69
2022/01/23 14:10:17;;;;;;;6.28;3.97;;;7.70;87.30;;;;;;5071147;28;20324;-69
2022/01/23 14:12:45;;;;;;;5.18;3.65;;;7.80;87.20;;;;;;5031116;28;20107;-69
2022/01/23 14:15:16;;;;;;;5.53;4.20;;;7.60;87.30;;;;;;5033656;28;20049;-69
2022/01/23 14:17:42;;;;;;;5.10;3.30;;;7.60;87.40;;;;;;5069563;28;20044;-69
2022/01/23 14:20:16;;;;;;;7.03;3.75;;;7.60;87.40;;;;;;5069879;28;20036;-69
2022/01/23 14:22:47;;;;;;;4.57;3.58;;;7.70;87.50;;;;;;5038405;28;20087;-69
2022/01/23 14:25:18;;;;;;;6.53;4.28;;;7.60;87.50;;;;;;5050446;28;20094;-69
2022/01/23 14:28:10;;;;;;;4.70;3.78;;;7.60;87.50;;;;;;5030919;28;20048;-69
2022/01/23 14:30:45;;;;;;;6.20;3.73;;;7.60;87.60;;;;;;5033621;28;20045;-68
2022/01/23 14:33:22;;;;;;;6.00;3.78;;;7.60;87.60;;;;;;5036760;28;20295;-68
2022/01/23 14:35:48;;;;;;;5.63;4.07;;;7.50;87.60;;;;;;5050607;28;20040;-69
2022/01/23 14:38:23;;;;;;;6.40;3.72;;;7.50;87.60;;;;;;5069773;28;20083;-69
2022/01/23 14:40:59;;;;;;;6.30;3.92;;;7.50;87.60;;;;;;5055444;28;20056;-69
2022/01/23 14:43:38;;;;;;;5.30;3.40;;;7.50;87.70;;;;;;5032527;28;20045;-69
2022/01/23 14:46:08;;;;;;;5.38;3.85;;;7.60;87.70;;;;;;5049865;28;20444;-68
2022/01/23 14:48:39;;;;;;;5.47;4.03;;;7.50;87.60;;;;;;5049165;28;20049;-69
2022/01/23 14:51:06;;;;;;;6.50;4.03;;;7.50;87.50;;;;;;5050091;28;20402;-69
2022/01/23 14:53:35;;;;;;;5.95;3.63;;;7.60;87.50;;;;;;5055797;28;20052;-69
2022/01/23 14:56:03;;;;;;;7.93;3.63;;;7.50;87.40;;;;;;5047377;28;20041;-69
2022/01/23 14:58:30;;;;;;;6.53;3.97;;;7.50;87.40;;;;;;5048769;28;20037;-69
2022/01/23 15:00:57;;;;;;;5.68;4.43;;;7.50;87.30;;;;;;5048082;28;20148;-70
2022/01/23 15:03:25;;;;;;;9.07;4.55;;;7.50;87.30;;;;;;5049815;28;20134;-69
2022/01/23 15:05:51;;;;;;;6.55;3.97;;;7.40;87.30;;;;;;5050374;28;20087;-69
2022/01/23 15:08:22;;;;;;;9.93;4.80;;;7.50;87.30;;;;;;5053682;28;20036;-69
2022/01/23 15:10:48;;;;;;;5.53;4.68;;;7.50;87.40;;;;;;5048253;28;20561;-69
2022/01/23 15:13:14;;;;;;;6.50;4.07;;;7.50;87.40;;;;;;5053829;28;20091;-69
2022/01/23 15:15:41;;;;;;;5.90;4.30;;;7.50;87.40;;;;;;5031760;28;20041;-69
2022/01/23 15:18:07;;;;;;;7.35;4.40;;;7.50;87.30;;;;;;5048745;28;20056;-69
2022/01/23 15:20:33;;;;;;;6.90;4.93;;;7.40;87.40;;;;;;5049966;28;20045;-69
2022/01/23 15:23:03;;;;;;;8.15;4.32;;;7.50;87.50;;;;;;5048925;28;20107;-69
2022/01/23 15:25:29;;;;;;;5.95;4.65;;;7.50;87.50;;;;;;5049312;28;20037;-69
2022/01/23 15:27:56;;;;;;;7.57;4.40;;;7.50;87.40;;;;;;5047251;28;20080;-69
2022/01/23 15:30:24;;;;;;;6.40;4.57;;;7.50;87.50;;;;;;5061321;28;20041;-69
2022/01/23 15:32:51;;;;;;;5.55;4.07;;;7.40;87.50;;;;;;5049174;28;20033;-69
2022/01/23 15:35:17;;;;;;;6.25;4.55;;;7.30;87.40;;;;;;5047662;28;20037;-69
2022/01/23 15:37:43;;;;;;;5.82;4.80;;;7.40;87.50;;;;;;5047928;28;20061;-69
2022/01/23 15:40:10;;;;;;;5.97;4.78;;;7.30;87.50;;;;;;5048929;28;20037;-69
2022/01/23 15:42:37;;;;;;;7.65;4.95;;;7.30;87.50;;;;;;5028984;28;20056;-69
2022/01/23 15:45:03;;;;;;;6.03;4.57;;;7.30;87.50;;;;;;5048674;28;20125;-69
2022/01/23 15:47:29;;;;;;;5.93;4.90;;;7.30;87.50;;;;;;5045105;28;20041;-69
2022/01/23 15:49:55;;;;;;;6.15;4.57;;;7.30;87.50;;;;;;5047915;28;20047;-69
2022/01/23 15:52:20;;;;;;;6.57;4.32;;;7.30;87.60;;;;;;5028624;28;20045;-69
2022/01/23 15:54:47;;;;;;;7.70;4.50;;;7.40;87.70;;;;;;5048783;28;20127;-69
2022/01/23 15:57:13;;;;;;;4.85;4.10;;;7.40;87.60;;;;;;5046562;28;20059;-69
2022/01/23 15:59:39;;;;;;;5.63;4.55;;;7.40;87.70;;;;;;5047658;28;20063;-69
2022/01/23 16:02:07;;;;;;;9.05;4.38;;;7.40;87.60;;;;;;5047286;28;20139;-69
2022/01/23 16:04:37;;;;;;;7.88;4.40;;;7.40;87.50;;;;;;5047594;28;20053;-69
2022/01/23 16:07:03;;;;;;;5.75;4.53;;;7.40;87.50;;;;;;5048459;28;20056;-69
2022/01/23 16:09:29;;;;;;;7.88;4.50;;;7.40;87.50;;;;;;5048604;28;20056;-69
2022/01/23 16:11:55;;;;;;;7.15;4.97;;;7.50;87.50;;;;;;5047077;28;20082;-69